createdAt,value
2022-10-19T00:00:30.306Z,100.00
2022-10-19T00:02:56.712Z,100.00
2022-10-19T00:05:23.091Z,100.00
2022-10-19T00:07:49.477Z,100.00
2022-10-19T00:10:15.922Z,100.00
2022-10-19T00:12:42.356Z,100.00
2022-10-19T00:15:09.068Z,100.00
2022-10-19T00:17:35.973Z,100.00
2022-10-19T00:20:02.509Z,100.00
2022-10-19T00:22:28.887Z,100.00
2022-10-19T00:24:57.365Z,100.00
2022-10-19T00:27:23.751Z,100.00
2022-10-19T00:29:50.145Z,100.00
2022-10-19T00:32:16.527Z,100.00
2022-10-19T00:34:43.020Z,100.00
2022-10-19T00:37:09.398Z,100.00
2022-10-19T00:39:35.767Z,100.00
2022-10-19T00:42:02.144Z,100.00
2022-10-19T00:44:28.463Z,100.00
2022-10-19T00:46:58.948Z,100.00
2022-10-19T00:49:28.675Z,100.00
2022-10-19T00:52:03.260Z,100.00
2022-10-19T00:54:32.450Z,100.00
2022-10-19T00:56:59.767Z,100.00
2022-10-19T00:59:27.997Z,100.00
2022-10-19T01:01:54.840Z,100.00
2022-10-19T01:04:23.407Z,100.00
2022-10-19T01:09:17.514Z,100.00
2022-10-19T01:12:11.944Z,100.00
2022-10-19T01:15:15.670Z,100.00
2022-10-19T01:17:47.023Z,100.00
2022-10-19T01:20:27.990Z,100.00
2022-10-19T01:23:26.115Z,100.00
2022-10-19T01:26:09.766Z,100.00
2022-10-19T01:28:55.941Z,100.00
2022-10-19T01:31:45.910Z,100.00
2022-10-19T01:34:23.000Z,100.00
2022-10-19T01:37:17.379Z,100.00
2022-10-19T01:39:54.948Z,100.00
2022-10-19T01:42:45.797Z,100.00
2022-10-19T01:45:18.300Z,100.00
2022-10-19T01:48:06.239Z,100.00
2022-10-19T01:50:40.987Z,100.00
2022-10-19T01:53:10.077Z,100.00
2022-10-19T01:55:42.227Z,100.00
2022-10-19T01:58:13.879Z,100.00
2022-10-19T02:00:45.305Z,100.00
2022-10-19T02:03:13.488Z,100.00
2022-10-19T02:05:41.575Z,100.00
2022-10-19T02:08:20.302Z,100.00
2022-10-19T02:10:47.499Z,100.00
2022-10-19T02:13:15.535Z,100.00
2022-10-19T02:15:46.398Z,100.00
2022-10-19T02:18:15.489Z,100.00
2022-10-19T02:20:41.968Z,100.00
2022-10-19T02:23:09.099Z,100.00
2022-10-19T02:25:36.630Z,100.00
2022-10-19T02:28:04.728Z,100.00
2022-10-19T02:30:31.362Z,100.00
2022-10-19T02:32:57.771Z,100.00
2022-10-19T02:35:24.202Z,100.00
2022-10-19T02:37:50.730Z,100.00
2022-10-19T02:40:17.288Z,100.00
2022-10-19T02:43:00.154Z,100.00
2022-10-19T02:45:32.796Z,100.00
2022-10-19T02:48:03.987Z,100.00
2022-10-19T02:50:30.654Z,100.00
2022-10-19T02:52:58.819Z,100.00
2022-10-19T02:55:25.572Z,100.00
2022-10-19T02:57:52.036Z,100.00
2022-10-19T03:00:18.410Z,100.00
2022-10-19T03:02:44.782Z,100.00
2022-10-19T03:05:11.170Z,100.00
2022-10-19T03:07:37.664Z,100.00
2022-10-19T03:10:04.418Z,100.00
2022-10-19T03:12:30.898Z,100.00
2022-10-19T03:14:57.278Z,100.00
2022-10-19T03:17:23.726Z,100.00
2022-10-19T03:19:50.100Z,100.00
2022-10-19T03:22:16.571Z,100.00
2022-10-19T03:24:42.945Z,100.00
2022-10-19T03:27:09.540Z,100.00
2022-10-19T03:29:35.908Z,100.00
2022-10-19T03:32:02.293Z,100.00
2022-10-19T03:34:28.767Z,100.00
2022-10-19T03:36:56.578Z,100.00
2022-10-19T03:39:22.954Z,100.00
2022-10-19T03:41:49.335Z,100.00
2022-10-19T03:44:15.713Z,100.00
2022-10-19T03:46:42.125Z,100.00
2022-10-19T03:49:09.294Z,100.00
2022-10-19T03:51:36.264Z,100.00
2022-10-19T03:54:06.522Z,100.00
2022-10-19T03:56:34.630Z,100.00
2022-10-19T03:59:03.374Z,100.00
2022-10-19T04:01:38.407Z,100.00
2022-10-19T04:04:07.466Z,100.00
2022-10-19T04:06:36.633Z,100.00
2022-10-19T04:09:04.552Z,100.00
2022-10-19T04:11:33.300Z,100.00
2022-10-19T04:14:00.079Z,100.00
2022-10-19T04:16:28.692Z,100.00
2022-10-19T04:18:55.546Z,100.00
2022-10-19T04:21:30.809Z,100.00
2022-10-19T04:24:00.239Z,100.00
2022-10-19T04:26:26.629Z,100.00
2022-10-19T04:28:53.242Z,100.00
2022-10-19T04:31:19.654Z,100.00
2022-10-19T04:36:17.354Z,100.00
2022-10-19T04:38:43.777Z,100.00
2022-10-19T04:41:12.551Z,100.00
2022-10-19T04:43:39.364Z,100.00
2022-10-19T04:46:07.756Z,100.00
2022-10-19T04:48:35.537Z,100.00
2022-10-19T04:51:02.175Z,100.00
2022-10-19T04:53:28.558Z,100.00
2022-10-19T04:55:54.988Z,100.00
2022-10-19T04:58:26.547Z,100.00
2022-10-19T05:00:53.074Z,100.00
2022-10-19T05:03:19.485Z,100.00
2022-10-19T05:05:45.860Z,100.00
2022-10-19T05:08:12.280Z,100.00
2022-10-19T05:10:38.750Z,100.00
2022-10-19T05:13:05.603Z,100.00
2022-10-19T05:15:31.996Z,100.00
2022-10-19T05:17:58.586Z,100.00
2022-10-19T05:20:25.051Z,100.00
2022-10-19T05:22:51.766Z,100.00
2022-10-19T05:25:18.131Z,100.00
2022-10-19T05:27:44.537Z,100.00
2022-10-19T05:30:10.998Z,100.00
2022-10-19T05:32:37.374Z,100.00
2022-10-19T05:35:03.927Z,100.00
2022-10-19T05:37:30.320Z,100.00
2022-10-19T05:39:56.704Z,100.00
2022-10-19T05:42:23.087Z,100.00
2022-10-19T05:44:49.457Z,100.00
2022-10-19T05:47:15.838Z,100.00
2022-10-19T05:49:42.210Z,100.00
2022-10-19T05:52:08.700Z,100.00
2022-10-19T05:54:37.015Z,100.00
2022-10-19T05:57:03.554Z,100.00
2022-10-19T05:59:29.977Z,100.00
2022-10-19T06:01:56.403Z,100.00
2022-10-19T06:04:22.898Z,100.00
2022-10-19T06:06:49.283Z,100.00
2022-10-19T06:09:15.718Z,100.00
2022-10-19T06:11:43.134Z,100.00
2022-10-19T06:14:13.344Z,100.00
2022-10-19T06:16:39.780Z,100.00
2022-10-19T06:19:06.283Z,100.00
2022-10-19T06:21:33.906Z,100.00
2022-10-19T06:24:02.759Z,100.00
2022-10-19T06:26:30.943Z,100.00
2022-10-19T06:29:00.363Z,100.00
2022-10-19T06:31:27.980Z,100.00
2022-10-19T06:33:55.748Z,100.00
2022-10-19T06:36:24.919Z,100.00
2022-10-19T06:38:53.125Z,100.00
2022-10-19T06:41:20.423Z,100.00
2022-10-19T06:43:54.284Z,100.00
2022-10-19T06:46:23.571Z,100.00
2022-10-19T06:48:54.891Z,100.00
2022-10-19T06:51:21.907Z,100.00
2022-10-19T06:53:54.181Z,100.00
2022-10-19T06:56:24.541Z,100.00
2022-10-19T06:58:51.022Z,100.00
2022-10-19T07:01:17.510Z,100.00
2022-10-19T07:03:43.960Z,100.00
2022-10-19T07:06:12.255Z,100.00
2022-10-19T07:08:40.469Z,100.00
2022-10-19T07:11:09.976Z,100.00
2022-10-19T07:13:36.640Z,100.00
2022-10-19T07:16:06.740Z,100.00
2022-10-19T07:18:36.918Z,100.00
2022-10-19T07:21:06.066Z,100.00
2022-10-19T07:23:33.942Z,100.00
2022-10-19T07:26:09.567Z,100.00
2022-10-19T07:28:35.980Z,100.00
2022-10-19T07:31:10.555Z,100.00
2022-10-19T07:33:37.235Z,100.00
2022-10-19T07:36:06.543Z,100.00
2022-10-19T07:38:33.744Z,100.00
2022-10-19T07:41:15.113Z,100.00
2022-10-19T07:43:43.253Z,100.00
2022-10-19T07:46:13.335Z,100.00
2022-10-19T07:48:39.724Z,100.00
2022-10-19T07:51:08.362Z,100.00
2022-10-19T07:53:35.046Z,100.00
2022-10-19T07:56:07.015Z,100.00
2022-10-19T07:58:34.391Z,100.00
2022-10-19T08:01:04.901Z,100.00
2022-10-19T08:04:31.206Z,100.00
2022-10-19T08:06:19.104Z,100.00
2022-10-19T08:08:47.103Z,100.00
2022-10-19T08:11:21.108Z,100.00
2022-10-19T08:13:48.232Z,100.00
2022-10-19T08:16:30.152Z,100.00
2022-10-19T08:18:58.734Z,100.00
2022-10-19T08:21:26.485Z,100.00
2022-10-19T08:23:52.873Z,100.00
2022-10-19T08:26:19.925Z,100.00
2022-10-19T08:28:46.322Z,100.00
2022-10-19T08:31:19.559Z,98.81
2022-10-19T08:33:46.227Z,98.78
2022-10-19T08:36:13.634Z,100.00
2022-10-19T08:38:41.563Z,100.00
2022-10-19T08:41:29.116Z,98.51
2022-10-19T08:44:03.987Z,99.57
2022-10-19T08:46:54.131Z,98.90
2022-10-19T08:49:25.574Z,97.82
2022-10-19T08:51:57.731Z,99.31
2022-10-19T08:54:29.197Z,98.79
2022-10-19T08:57:13.702Z,97.82
2022-10-19T08:59:58.677Z,97.67
2022-10-19T09:02:43.736Z,99.32
2022-10-19T09:05:35.790Z,97.16
2022-10-19T09:08:02.587Z,98.44
2022-10-19T09:10:32.989Z,95.65
2022-10-19T09:13:17.600Z,96.30
2022-10-19T09:15:49.245Z,96.86
2022-10-19T09:18:25.436Z,95.59
2022-10-19T09:20:58.082Z,96.45
2022-10-19T09:23:45.455Z,95.60
2022-10-19T09:26:15.835Z,94.05
2022-10-19T09:29:06.493Z,92.48
2022-10-19T09:31:42.746Z,93.44
2022-10-19T09:34:26.465Z,91.02
2022-10-19T09:36:58.524Z,93.06
2022-10-19T09:39:29.467Z,91.56
2022-10-19T09:42:05.423Z,92.28
2022-10-19T09:44:32.332Z,91.45
2022-10-19T09:47:19.996Z,89.46
2022-10-19T09:49:48.667Z,87.72
2022-10-19T09:52:35.915Z,88.47
2022-10-19T09:55:14.169Z,86.64
2022-10-19T09:57:44.519Z,86.31
2022-10-19T10:00:22.701Z,87.42
2022-10-19T10:02:51.387Z,88.51
2022-10-19T10:05:18.306Z,87.93
2022-10-19T10:07:45.250Z,88.81
2022-10-19T10:10:20.941Z,88.50
2022-10-19T10:12:48.040Z,88.29
2022-10-19T10:15:21.000Z,88.12
2022-10-19T10:17:48.935Z,88.60
2022-10-19T10:20:32.706Z,89.90
2022-10-19T10:23:02.446Z,88.49
2022-10-19T10:25:31.736Z,87.66
2022-10-19T10:28:14.584Z,86.84
2022-10-19T10:30:41.076Z,87.34
2022-10-19T10:33:16.004Z,87.19
2022-10-19T10:35:57.751Z,87.71
2022-10-19T10:38:32.014Z,89.01
2022-10-19T10:41:07.820Z,89.52
2022-10-19T10:43:38.600Z,87.09
2022-10-19T10:46:15.748Z,87.75
2022-10-19T10:48:46.441Z,88.52
2022-10-19T10:51:34.581Z,87.09
2022-10-19T10:54:18.720Z,85.16
2022-10-19T10:56:57.884Z,84.43
2022-10-19T10:59:54.519Z,83.19
2022-10-19T11:02:46.877Z,80.74
2022-10-19T11:05:33.399Z,81.31
2022-10-19T11:08:11.960Z,82.26
2022-10-19T11:10:49.891Z,80.30
2022-10-19T11:13:24.053Z,80.84
2022-10-19T11:16:13.993Z,81.00
2022-10-19T11:18:46.334Z,82.50
2022-10-19T11:21:22.946Z,81.10
2022-10-19T11:24:10.104Z,79.80
2022-10-19T11:26:52.653Z,80.18
2022-10-19T11:29:26.921Z,77.02
2022-10-19T11:31:55.190Z,78.72
2022-10-19T11:34:47.910Z,76.52
2022-10-19T11:37:49.720Z,73.67
2022-10-19T11:40:31.913Z,74.98
2022-10-19T11:43:23.521Z,74.14
2022-10-19T11:46:05.510Z,73.95
2022-10-19T11:48:43.724Z,74.53
2022-10-19T11:51:21.798Z,75.22
2022-10-19T11:54:14.849Z,73.84
2022-10-19T11:57:06.422Z,72.89
2022-10-19T12:00:15.137Z,68.35
2022-10-19T12:03:28.715Z,70.54
2022-10-19T12:06:12.779Z,75.18
2022-10-19T12:09:04.957Z,67.33
2022-10-19T12:11:58.965Z,67.56
2022-10-19T12:14:30.854Z,66.67
2022-10-19T12:17:02.095Z,67.58
2022-10-19T12:19:42.307Z,66.87
2022-10-19T12:22:16.894Z,67.80
2022-10-19T12:24:43.587Z,68.60
2022-10-19T12:27:14.997Z,68.77
2022-10-19T12:29:45.729Z,67.94
2022-10-19T12:32:17.752Z,68.35
2022-10-19T12:34:53.658Z,70.99
2022-10-19T12:37:44.355Z,67.95
2022-10-19T12:40:28.910Z,67.87
2022-10-19T12:43:17.590Z,66.88
2022-10-19T12:46:07.697Z,66.55
2022-10-19T12:48:36.313Z,66.45
2022-10-19T12:51:05.695Z,65.55
2022-10-19T12:53:40.738Z,64.09
2022-10-19T12:56:13.564Z,64.76
2022-10-19T12:58:48.795Z,62.88
2022-10-19T13:01:22.244Z,64.43
2022-10-19T13:03:53.208Z,65.73
2022-10-19T13:06:30.733Z,65.86
2022-10-19T13:09:00.635Z,65.60
2022-10-19T13:11:27.095Z,65.45
2022-10-19T13:14:19.667Z,62.30
2022-10-19T13:16:57.426Z,66.87
2022-10-19T13:19:24.539Z,64.80
2022-10-19T13:21:54.235Z,61.97
2022-10-19T13:24:27.194Z,63.12
2022-10-19T13:26:59.817Z,64.09
2022-10-19T13:29:28.825Z,63.49
2022-10-19T13:31:55.342Z,63.69
2022-10-19T13:34:24.135Z,62.72
2022-10-19T13:37:00.588Z,63.24
2022-10-19T13:39:28.814Z,59.66
2022-10-19T13:41:57.019Z,61.19
2022-10-19T13:44:26.657Z,59.20
2022-10-19T13:47:18.625Z,59.63
2022-10-19T13:50:11.548Z,59.63
2022-10-19T13:52:40.792Z,61.54
2022-10-19T13:55:32.907Z,60.50
2022-10-19T13:58:18.171Z,59.07
2022-10-19T14:01:09.436Z,63.62
2022-10-19T14:03:54.626Z,58.95
2022-10-19T14:06:42.667Z,59.15
2022-10-19T14:09:23.937Z,57.65
2022-10-19T14:11:53.353Z,59.63
2022-10-19T14:14:20.879Z,60.29
2022-10-19T14:17:03.796Z,58.03
2022-10-19T14:19:34.218Z,58.51
2022-10-19T14:22:16.862Z,57.91
2022-10-19T14:24:43.383Z,57.08
2022-10-19T14:27:19.605Z,58.08
2022-10-19T14:29:48.779Z,58.47
2022-10-19T14:32:17.486Z,59.10
2022-10-19T14:34:46.137Z,60.54
2022-10-19T14:37:26.583Z,58.55
2022-10-19T14:40:02.149Z,58.36
2022-10-19T14:42:44.102Z,59.79
2022-10-19T14:45:23.100Z,59.65
2022-10-19T14:47:54.754Z,57.97
2022-10-19T14:50:26.473Z,57.78
2022-10-19T14:53:01.852Z,59.06
2022-10-19T14:55:34.654Z,59.50
2022-10-19T14:58:02.087Z,59.40
2022-10-19T15:00:32.192Z,60.59
2022-10-19T15:03:04.423Z,59.88
2022-10-19T15:05:34.568Z,60.87
2022-10-19T15:08:17.257Z,60.18
2022-10-19T15:10:46.841Z,60.89
2022-10-19T15:13:24.976Z,62.41
2022-10-19T15:15:53.144Z,62.72
2022-10-19T15:18:43.945Z,63.09
2022-10-19T15:21:20.282Z,66.24
2022-10-19T15:23:52.111Z,66.53
2022-10-19T15:26:24.437Z,67.65
2022-10-19T15:28:51.133Z,69.19
2022-10-19T15:31:24.535Z,70.75
2022-10-19T15:33:57.383Z,72.18
2022-10-19T15:36:25.252Z,72.25
2022-10-19T15:39:06.089Z,73.47
2022-10-19T15:41:43.817Z,74.42
2022-10-19T15:44:33.816Z,74.76
2022-10-19T15:47:15.304Z,76.85
2022-10-19T15:49:41.676Z,77.47
2022-10-19T15:52:15.294Z,77.53
2022-10-19T15:54:42.786Z,77.70
2022-10-19T15:57:33.704Z,78.45
2022-10-19T16:00:07.291Z,78.08
2022-10-19T16:02:33.675Z,78.38
2022-10-19T16:05:00.132Z,80.01
2022-10-19T16:07:30.344Z,79.28
2022-10-19T16:09:57.254Z,79.71
2022-10-19T16:12:24.494Z,80.16
2022-10-19T16:14:50.883Z,81.16
2022-10-19T16:17:17.313Z,81.68
2022-10-19T16:19:44.091Z,80.64
2022-10-19T16:22:11.654Z,80.73
2022-10-19T16:24:38.255Z,81.66
2022-10-19T16:27:05.339Z,81.85
2022-10-19T16:29:31.951Z,82.49
2022-10-19T16:31:58.685Z,83.22
2022-10-19T16:34:25.339Z,82.94
2022-10-19T16:36:51.774Z,83.79
2022-10-19T16:39:18.177Z,83.56
2022-10-19T16:41:44.637Z,83.63
2022-10-19T16:44:12.552Z,83.62
2022-10-19T16:46:39.263Z,83.41
2022-10-19T16:49:05.683Z,83.53
2022-10-19T16:51:36.081Z,85.26
2022-10-19T16:54:04.120Z,84.66
2022-10-19T16:56:31.247Z,84.56
2022-10-19T16:59:05.977Z,84.45
2022-10-19T17:01:34.178Z,84.37
2022-10-19T17:04:00.784Z,84.06
2022-10-19T17:06:28.160Z,86.25
2022-10-19T17:11:45.274Z,85.11
2022-10-19T17:14:12.764Z,86.61
2022-10-19T17:16:39.897Z,86.57
2022-10-19T17:19:07.859Z,87.25
2022-10-19T17:21:38.466Z,87.53
2022-10-19T17:24:07.389Z,86.43
2022-10-19T17:26:36.631Z,86.41
2022-10-19T17:29:04.364Z,87.34
2022-10-19T17:31:31.265Z,85.83
2022-10-19T17:33:58.028Z,86.86
2022-10-19T17:36:28.066Z,86.65
2022-10-19T17:38:56.232Z,85.98
2022-10-19T17:41:22.871Z,86.33
2022-10-19T17:43:51.739Z,87.50
2022-10-19T17:46:20.661Z,87.56
2022-10-19T17:48:47.547Z,86.29
2022-10-19T17:51:23.630Z,86.92
2022-10-19T17:53:50.694Z,86.81
2022-10-19T17:56:19.802Z,88.40
2022-10-19T17:58:48.094Z,87.18
2022-10-19T18:01:15.981Z,87.86
2022-10-19T18:03:42.572Z,88.57
2022-10-19T18:06:12.685Z,89.32
2022-10-19T18:08:41.362Z,91.11
2022-10-19T18:11:12.469Z,89.77
2022-10-19T18:13:39.311Z,87.27
2022-10-19T18:16:17.442Z,88.83
2022-10-19T18:18:46.100Z,88.87
2022-10-19T18:21:14.346Z,88.97
2022-10-19T18:23:40.755Z,88.69
2022-10-19T18:26:10.072Z,88.52
2022-10-19T18:28:37.258Z,88.92
2022-10-19T18:31:16.574Z,89.22
2022-10-19T18:33:43.243Z,88.53
2022-10-19T18:36:10.599Z,87.82
2022-10-19T18:38:37.975Z,88.15
2022-10-19T18:41:07.147Z,86.41
2022-10-19T18:43:33.982Z,86.71
2022-10-19T18:46:00.827Z,86.30
2022-10-19T18:48:28.978Z,87.93
2022-10-19T18:50:56.648Z,88.81
2022-10-19T18:53:23.943Z,89.91
2022-10-19T18:55:58.189Z,89.53
2022-10-19T18:58:25.299Z,90.37
2022-10-19T19:01:09.947Z,90.08
2022-10-19T19:03:38.175Z,88.53
2022-10-19T19:06:09.653Z,88.36
2022-10-19T19:08:36.154Z,88.00
2022-10-19T19:11:13.007Z,87.88
2022-10-19T19:13:40.834Z,88.11
2022-10-19T19:16:08.112Z,87.89
2022-10-19T19:18:35.390Z,87.24
2022-10-19T19:21:02.463Z,88.13
2022-10-19T19:23:29.284Z,87.89
2022-10-19T19:25:56.564Z,88.82
2022-10-19T19:28:23.038Z,89.86
2022-10-19T19:30:49.432Z,90.70
2022-10-19T19:33:15.812Z,89.76
2022-10-19T19:35:46.633Z,89.59
2022-10-19T19:38:14.150Z,89.59
2022-10-19T19:40:46.040Z,90.56
2022-10-19T19:43:14.032Z,90.72
2022-10-19T19:45:42.407Z,90.36
2022-10-19T19:48:10.181Z,90.30
2022-10-19T19:50:38.182Z,89.27
2022-10-19T19:53:04.921Z,88.67
2022-10-19T19:55:38.110Z,88.31
2022-10-19T19:58:05.508Z,87.78
2022-10-19T20:00:31.899Z,87.54
2022-10-19T20:02:58.914Z,87.43
2022-10-19T20:05:27.027Z,88.23
2022-10-19T20:07:53.435Z,88.44
2022-10-19T20:10:19.844Z,89.02
2022-10-19T20:12:47.146Z,88.32
2022-10-19T20:15:15.315Z,87.10
2022-10-19T20:17:41.945Z,88.49
2022-10-19T20:20:10.656Z,89.62
2022-10-19T20:22:37.283Z,88.53
2022-10-19T20:25:04.560Z,88.04
2022-10-19T20:27:34.777Z,87.56
2022-10-19T20:30:01.367Z,87.13
2022-10-19T20:32:29.173Z,87.98
2022-10-19T20:34:55.570Z,88.38
2022-10-19T20:37:22.272Z,87.79
2022-10-19T20:39:49.353Z,88.84
2022-10-19T20:42:17.291Z,88.56
2022-10-19T20:44:44.321Z,88.84
2022-10-19T20:47:11.178Z,89.26
2022-10-19T20:49:37.610Z,89.96
2022-10-19T20:52:04.323Z,90.03
2022-10-19T20:54:30.715Z,89.96
2022-10-19T20:56:57.736Z,88.24
2022-10-19T20:59:26.726Z,89.05
2022-10-19T21:01:56.136Z,89.56
2022-10-19T21:04:23.265Z,89.92
2022-10-19T21:06:51.369Z,90.00
2022-10-19T21:09:20.404Z,90.55
2022-10-19T21:11:50.024Z,88.90
2022-10-19T21:14:25.281Z,88.15
2022-10-19T21:16:56.738Z,88.96
2022-10-19T21:19:25.377Z,88.43
2022-10-19T21:21:57.693Z,88.65
2022-10-19T21:24:28.424Z,88.74
2022-10-19T21:26:54.835Z,89.30
2022-10-19T21:29:21.246Z,89.21
2022-10-19T21:31:50.142Z,90.08
2022-10-19T21:34:19.281Z,89.12
2022-10-19T21:36:45.847Z,89.73
2022-10-19T21:39:12.231Z,89.15
2022-10-19T21:41:38.694Z,89.88
2022-10-19T21:44:05.226Z,89.89
2022-10-19T21:46:31.684Z,91.22
2022-10-19T21:48:58.143Z,91.27
2022-10-19T21:51:39.188Z,91.39
2022-10-19T21:54:06.571Z,90.70
2022-10-19T21:56:34.550Z,90.71
2022-10-19T21:59:00.959Z,90.64
2022-10-19T22:01:29.420Z,92.12
2022-10-19T22:03:57.134Z,91.92
2022-10-19T22:06:24.928Z,91.62
2022-10-19T22:08:51.666Z,93.37
2022-10-19T22:11:18.566Z,92.46
2022-10-19T22:13:44.965Z,93.85
2022-10-19T22:16:17.171Z,92.91
2022-10-19T22:18:43.982Z,93.22
2022-10-19T22:21:13.469Z,95.15
2022-10-19T22:23:40.506Z,94.50
2022-10-19T22:26:17.915Z,94.07
2022-10-19T22:28:44.897Z,94.77
2022-10-19T22:31:12.143Z,95.26
2022-10-19T22:33:39.285Z,94.61
2022-10-19T22:36:08.495Z,95.72
2022-10-19T22:38:35.292Z,95.02
2022-10-19T22:41:01.747Z,95.31
2022-10-19T22:43:28.173Z,95.05
2022-10-19T22:45:54.621Z,95.88
2022-10-19T22:48:21.032Z,96.76
2022-10-19T22:50:47.459Z,97.14
2022-10-19T22:53:14.059Z,97.95
2022-10-19T22:55:40.679Z,98.19
2022-10-19T22:58:08.602Z,97.00
2022-10-19T23:00:35.562Z,96.08
2022-10-19T23:03:02.023Z,97.63
2022-10-19T23:05:28.554Z,97.60
2022-10-19T23:07:54.983Z,96.63
2022-10-19T23:10:21.908Z,97.36
2022-10-19T23:12:52.755Z,97.46
2022-10-19T23:15:20.897Z,98.04
2022-10-19T23:17:47.623Z,96.67
2022-10-19T23:20:14.614Z,98.13
2022-10-19T23:22:41.020Z,98.57
2022-10-19T23:25:08.320Z,97.95
2022-10-19T23:27:35.167Z,98.96
2022-10-19T23:30:03.304Z,99.11
2022-10-19T23:32:29.760Z,98.97
2022-10-19T23:34:56.160Z,97.42
2022-10-19T23:37:22.696Z,98.19
2022-10-19T23:39:49.106Z,96.89
2022-10-19T23:42:15.505Z,97.68
2022-10-19T23:44:41.915Z,97.92
2022-10-19T23:47:08.313Z,96.85
2022-10-19T23:49:34.736Z,98.24
2022-10-19T23:52:01.190Z,98.15
2022-10-19T23:54:27.584Z,98.15
2022-10-19T23:56:53.982Z,97.97
2022-10-19T23:59:20.377Z,97.84
